createdAt,value
2019-02-21T00:02:15.495Z,100959.77
2019-02-21T00:04:45.015Z,100951.95
2019-02-21T00:07:14.329Z,100953.59
2019-02-21T00:09:43.750Z,100947.95
2019-02-21T00:12:13.040Z,100943.50
2019-02-21T00:14:42.431Z,100947.43
2019-02-21T00:17:30.816Z,100943.05
2019-02-21T00:20:00.368Z,100949.96
2019-02-21T00:22:48.632Z,100948.30
2019-02-21T00:25:17.958Z,100944.63
2019-02-21T00:28:06.292Z,100942.88
2019-02-21T00:30:35.721Z,100946.36
2019-02-21T00:33:05.025Z,100938.68
2019-02-21T00:35:34.357Z,100948.89
2019-02-21T00:38:03.660Z,100934.75
2019-02-21T00:40:52.122Z,100946.18
2019-02-21T00:43:21.431Z,100949.20
2019-02-21T00:45:50.711Z,100946.97
2019-02-21T00:48:20.163Z,100949.10
2019-02-21T00:50:49.434Z,100902.75
2019-02-21T00:53:19.243Z,100949.50
2019-02-21T00:56:07.461Z,100947.70
2019-02-21T00:58:36.794Z,100949.40
2019-02-21T01:03:55.016Z,100952.94
2019-02-21T01:06:24.315Z,100950.36
2019-02-21T01:08:53.806Z,100948.61
2019-02-21T01:11:23.091Z,100951.19
2019-02-21T01:13:52.825Z,100955.56
2019-02-21T01:19:22.034Z,100949.36
2019-02-21T01:21:51.638Z,100944.11
2019-02-21T01:24:20.918Z,100945.07
2019-02-21T01:26:50.192Z,100938.52
2019-02-21T01:29:19.577Z,100934.63
2019-02-21T01:31:48.884Z,100939.00
2019-02-21T01:34:18.270Z,100930.34
2019-02-21T01:36:47.554Z,100936.08
2019-02-21T01:39:16.970Z,100934.77
2019-02-21T01:41:46.264Z,100925.64
2019-02-21T01:44:34.778Z,100929.71
2019-02-21T01:47:04.077Z,100919.62
2019-02-21T01:52:08.370Z,100926.13
2019-02-21T01:54:37.685Z,100920.05
2019-02-21T01:57:06.971Z,100914.38
2019-02-21T01:59:55.349Z,100913.16
2019-02-21T02:05:33.406Z,100908.73
2019-02-21T02:08:02.834Z,100912.66
2019-02-21T02:10:32.113Z,100901.36
2019-02-21T02:15:36.370Z,100904.80
2019-02-21T02:18:05.662Z,100862.50
2019-02-21T02:20:35.329Z,100893.09
2019-02-21T02:23:04.694Z,100813.22
2019-02-21T02:25:34.155Z,100891.39
2019-02-21T02:28:03.444Z,100889.25
2019-02-21T02:30:33.174Z,100884.41
2019-02-21T02:33:02.457Z,100883.91
2019-02-21T02:35:31.912Z,100877.36
2019-02-21T02:38:01.238Z,100880.90
2019-02-21T02:40:42.342Z,100878.28
2019-02-21T02:43:11.629Z,100876.14
2019-02-21T02:45:41.569Z,100877.85
2019-02-21T02:48:10.898Z,100884.41
2019-02-21T02:50:40.390Z,100879.21
2019-02-21T02:53:09.673Z,100887.03
2019-02-21T02:55:39.241Z,100889.25
2019-02-21T02:58:08.668Z,100789.27
2019-02-21T03:00:38.373Z,100879.31
2019-02-21T03:03:07.659Z,100893.19
2019-02-21T03:05:37.012Z,100886.23
2019-02-21T03:08:06.284Z,100885.32
2019-02-21T03:10:35.708Z,100888.86
2019-02-21T03:13:05.010Z,100888.86
2019-02-21T03:15:34.434Z,100888.38
2019-02-21T03:18:03.706Z,100839.97
2019-02-21T03:23:09.039Z,100810.39
2019-02-21T03:25:38.340Z,100883.66
2019-02-21T03:28:07.867Z,100881.09
2019-02-21T03:30:37.138Z,100874.93
2019-02-21T03:33:25.395Z,100878.47
2019-02-21T03:38:43.372Z,100878.42
2019-02-21T03:41:12.719Z,100864.50
2019-02-21T03:43:42.177Z,100864.45
2019-02-21T03:46:11.466Z,100864.50
2019-02-21T03:48:41.076Z,100868.05
2019-02-21T03:51:10.365Z,100866.26
2019-02-21T03:53:39.918Z,100868.83
2019-02-21T03:56:09.179Z,100862.27
2019-02-21T03:58:38.694Z,100869.75
2019-02-21T04:04:35.613Z,100861.06
2019-02-21T04:07:04.999Z,100865.42
2019-02-21T04:09:34.296Z,100863.63
2019-02-21T04:12:03.599Z,100860.97
2019-02-21T04:14:33.053Z,100854.88
2019-02-21T04:19:37.215Z,100853.09
2019-02-21T04:22:17.909Z,100840.84
2019-02-21T04:24:47.192Z,100842.55
2019-02-21T04:27:16.484Z,100837.30
2019-02-21T04:29:45.782Z,100810.80
2019-02-21T04:32:17.115Z,100836.52
2019-02-21T04:34:46.327Z,100831.17
2019-02-21T04:37:34.694Z,100837.16
2019-02-21T04:40:04.132Z,100823.20
2019-02-21T04:42:33.483Z,100821.47
2019-02-21T04:45:02.860Z,100810.09
2019-02-21T04:47:32.195Z,100815.34
2019-02-21T04:50:01.512Z,100808.69
2019-02-21T04:52:30.885Z,100813.41
2019-02-21T04:55:00.523Z,100805.05
2019-02-21T04:57:29.758Z,100756.09
2019-02-21T04:59:59.317Z,100794.56
2019-02-21T05:02:29.726Z,100729.79
2019-02-21T05:04:59.259Z,100787.90
2019-02-21T05:07:47.596Z,100786.98
2019-02-21T05:10:16.971Z,100790.03
2019-02-21T05:12:46.374Z,100779.48
2019-02-21T05:15:15.759Z,100774.69
2019-02-21T05:17:45.087Z,100775.55
2019-02-21T05:20:14.445Z,100779.87
2019-02-21T05:22:43.742Z,100775.89
2019-02-21T05:25:13.027Z,100774.14
2019-02-21T05:28:01.249Z,100771.52
2019-02-21T05:30:30.695Z,100683.02
2019-02-21T05:33:18.884Z,100785.99
2019-02-21T05:36:05.596Z,100787.30
2019-02-21T05:41:37.809Z,100777.22
2019-02-21T05:44:26.032Z,100799.89
2019-02-21T05:47:26.105Z,100810.38
2019-02-21T05:50:14.304Z,100821.69
2019-02-21T05:52:50.828Z,100826.84
2019-02-21T05:55:58.076Z,100841.66
2019-02-21T05:58:46.371Z,100855.70
2019-02-21T06:01:34.703Z,100773.53
2019-02-21T06:04:23.178Z,100819.00
2019-02-21T06:07:11.714Z,100763.14
2019-02-21T06:10:00.229Z,100859.34
2019-02-21T06:12:48.987Z,100852.88
2019-02-21T06:15:37.219Z,100855.08
2019-02-21T06:18:25.480Z,100859.53
2019-02-21T06:21:13.860Z,100845.59
2019-02-21T06:23:49.377Z,100842.16
2019-02-21T06:26:39.514Z,100841.27
2019-02-21T06:29:28.130Z,100833.50
2019-02-21T06:31:57.925Z,100832.53
2019-02-21T06:34:27.389Z,100829.91
2019-02-21T06:36:57.386Z,100823.80
2019-02-21T06:39:26.807Z,100816.80
2019-02-21T06:41:59.727Z,100816.36
2019-02-21T06:44:27.515Z,100807.96
2019-02-21T06:46:56.818Z,100809.70
2019-02-21T06:49:32.456Z,100809.70
2019-02-21T06:51:57.393Z,100811.80
2019-02-21T06:54:26.873Z,100818.35
2019-02-21T06:56:56.191Z,100818.30
2019-02-21T06:59:25.531Z,100819.07
2019-02-21T07:01:54.831Z,100824.27
2019-02-21T07:04:24.106Z,100832.97
2019-02-21T07:06:53.398Z,100829.52
2019-02-21T07:09:22.876Z,100837.33
2019-02-21T07:11:52.171Z,100832.03
2019-02-21T07:14:21.512Z,100834.61
2019-02-21T07:16:50.795Z,100838.94
2019-02-21T07:19:20.144Z,100841.06
2019-02-21T07:21:49.525Z,100842.27
2019-02-21T07:24:18.850Z,100833.73
2019-02-21T07:26:48.186Z,100850.83
2019-02-21T07:29:17.530Z,100845.58
2019-02-21T07:31:49.293Z,100849.02
2019-02-21T07:34:18.181Z,100850.73
2019-02-21T07:36:49.972Z,100846.73
2019-02-21T07:39:20.857Z,100849.36
2019-02-21T07:41:50.204Z,100847.22
2019-02-21T07:44:19.732Z,100850.63
2019-02-21T07:46:49.061Z,100848.42
2019-02-21T07:49:18.549Z,100856.69
2019-02-21T07:51:47.912Z,100853.14
2019-02-21T07:54:17.707Z,100858.39
2019-02-21T07:56:47.010Z,100802.33
2019-02-21T07:59:16.377Z,100858.92
2019-02-21T08:01:45.669Z,100832.82
2019-02-21T08:04:15.136Z,100858.50
2019-02-21T08:06:44.433Z,100859.02
2019-02-21T08:09:13.960Z,100851.49
2019-02-21T08:11:43.281Z,100854.46
2019-02-21T08:14:12.775Z,100860.13
2019-02-21T08:16:42.133Z,100858.30
2019-02-21T08:19:11.574Z,100860.81
2019-02-21T08:21:43.392Z,100824.11
2019-02-21T08:24:11.918Z,100859.82
2019-02-21T08:26:41.236Z,100861.03
2019-02-21T08:29:10.558Z,100872.69
2019-02-21T08:31:39.855Z,100863.45
2019-02-21T08:34:16.422Z,100865.55
2019-02-21T08:37:04.756Z,100833.79
2019-02-21T08:39:34.383Z,100865.39
2019-02-21T08:42:03.713Z,100852.03
2019-02-21T08:44:33.218Z,100870.09
2019-02-21T08:47:10.060Z,100863.81
2019-02-21T08:49:39.378Z,100777.78
2019-02-21T08:52:08.667Z,100871.58
2019-02-21T08:54:38.025Z,100882.53
2019-02-21T08:57:07.353Z,100885.58
2019-02-21T08:59:55.553Z,100880.38
2019-02-21T09:02:24.876Z,100905.27
2019-02-21T09:04:54.169Z,100912.28
2019-02-21T09:07:23.501Z,100901.27
2019-02-21T09:09:52.974Z,100923.81
2019-02-21T09:12:22.281Z,100929.95
2019-02-21T09:14:51.712Z,100929.66
2019-02-21T09:17:21.014Z,100930.25
2019-02-21T09:19:50.496Z,100933.75
2019-02-21T09:22:38.893Z,100928.94
2019-02-21T09:25:19.670Z,100935.59
2019-02-21T09:27:49.196Z,100939.15
2019-02-21T09:30:19.056Z,100947.84
2019-02-21T09:33:17.053Z,100946.14
2019-02-21T09:35:38.771Z,100939.97
2019-02-21T09:38:08.145Z,100948.63
2019-02-21T09:40:37.861Z,100950.86
2019-02-21T09:43:07.228Z,100953.48
2019-02-21T09:45:36.758Z,100958.73
2019-02-21T09:48:17.980Z,100967.44
2019-02-21T09:50:58.600Z,100966.56
2019-02-21T09:53:27.921Z,100959.95
2019-02-21T09:55:57.296Z,100970.95
2019-02-21T09:58:26.617Z,100967.88
2019-02-21T10:00:55.965Z,100965.83
2019-02-21T10:03:25.275Z,100970.50
2019-02-21T10:06:13.561Z,100973.57
2019-02-21T10:08:42.867Z,100967.88
2019-02-21T10:11:12.287Z,100974.88
2019-02-21T10:13:41.600Z,100951.88
2019-02-21T10:16:11.121Z,100985.52
2019-02-21T10:18:40.439Z,100982.98
2019-02-21T10:21:10.202Z,100981.67
2019-02-21T10:23:42.024Z,100983.33
2019-02-21T10:26:10.680Z,100975.02
2019-02-21T10:28:39.986Z,100980.21
2019-02-21T10:31:09.372Z,100983.67
2019-02-21T10:33:46.476Z,100964.71
2019-02-21T10:36:09.823Z,100982.66
2019-02-21T10:38:39.338Z,100982.66
2019-02-21T10:41:08.995Z,100984.89
2019-02-21T10:43:40.051Z,100984.45
2019-02-21T10:46:09.366Z,100993.06
2019-02-21T10:48:38.810Z,100988.63
2019-02-21T10:51:08.293Z,100987.70
2019-02-21T10:53:38.023Z,100987.70
2019-02-21T10:56:07.342Z,100993.83
2019-02-21T10:58:37.013Z,100989.84
2019-02-21T11:01:06.321Z,100993.19
2019-02-21T11:03:35.924Z,100987.31
2019-02-21T11:08:53.636Z,100982.20
2019-02-21T11:11:23.090Z,100987.41
2019-02-21T11:13:52.403Z,100981.95
2019-02-21T11:16:40.761Z,100987.20
2019-02-21T11:19:10.218Z,100986.31
2019-02-21T11:21:39.528Z,100919.81
2019-02-21T11:24:09.277Z,101000.00
2019-02-21T11:26:38.539Z,100998.34
2019-02-21T11:29:08.215Z,101006.76
2019-02-21T11:31:37.524Z,101006.86
2019-02-21T11:34:07.279Z,101002.38
2019-02-21T11:36:36.582Z,101003.36
2019-02-21T11:42:02.110Z,100948.83
2019-02-21T11:44:50.498Z,101016.10
2019-02-21T11:47:20.152Z,101012.26
2019-02-21T11:49:49.436Z,101017.66
2019-02-21T11:52:19.109Z,101013.87
2019-02-21T11:54:48.406Z,101021.34
2019-02-21T11:57:18.091Z,101027.09
2019-02-21T12:03:02.505Z,101027.19
2019-02-21T12:05:32.364Z,101027.19
2019-02-21T12:08:03.271Z,101034.47
2019-02-21T12:10:51.638Z,101031.13
2019-02-21T12:13:20.990Z,101039.52
2019-02-21T12:15:50.322Z,101049.59
2019-02-21T12:18:19.931Z,101054.66
2019-02-21T12:20:49.233Z,101057.18
2019-02-21T12:23:18.592Z,101063.54
2019-02-21T12:25:47.918Z,101069.33
2019-02-21T12:28:17.401Z,101073.87
2019-02-21T12:33:21.064Z,101077.03
2019-02-21T12:35:50.598Z,101075.58
2019-02-21T12:38:19.895Z,100991.27
2019-02-21T12:40:49.219Z,101084.81
2019-02-21T12:43:18.554Z,101036.97
2019-02-21T12:45:48.369Z,101090.25
2019-02-21T12:48:17.720Z,101087.76
2019-02-21T12:50:47.227Z,101083.30
2019-02-21T12:53:16.573Z,101088.02
2019-02-21T12:55:46.196Z,101084.91
2019-02-21T12:58:15.512Z,101053.44
2019-02-21T13:00:45.106Z,101102.31
2019-02-21T13:03:14.503Z,101053.23
2019-02-21T13:05:44.705Z,101103.97
2019-02-21T13:08:15.358Z,101107.26
2019-02-21T13:10:44.754Z,101108.17
2019-02-21T13:13:14.152Z,101112.95
2019-02-21T13:15:43.549Z,101116.97
2019-02-21T13:18:15.912Z,101114.95
2019-02-21T13:20:43.979Z,101108.80
2019-02-21T13:23:13.288Z,101109.35
2019-02-21T13:25:42.703Z,101127.55
2019-02-21T13:28:12.023Z,101130.88
2019-02-21T13:30:41.467Z,101136.48
2019-02-21T13:33:10.810Z,101106.56
2019-02-21T13:35:51.861Z,101149.47
2019-02-21T13:38:11.305Z,101147.19
2019-02-21T13:40:40.683Z,101161.70
2019-02-21T13:43:10.002Z,101163.78
2019-02-21T13:45:39.375Z,101166.72
2019-02-21T13:48:08.741Z,101175.03
2019-02-21T13:50:38.212Z,101170.06
2019-02-21T13:53:07.687Z,101173.28
2019-02-21T13:55:37.195Z,101177.61
2019-02-21T13:58:06.642Z,101198.77
2019-02-21T14:00:35.940Z,101178.45
2019-02-21T14:03:05.279Z,101177.05
2019-02-21T14:05:34.631Z,101165.24
2019-02-21T14:08:22.977Z,101162.78
2019-02-21T14:10:52.391Z,101176.17
2019-02-21T14:13:21.711Z,101181.83
2019-02-21T14:15:51.020Z,101181.06
2019-02-21T14:18:20.412Z,101197.36
2019-02-21T14:20:49.700Z,101179.64
2019-02-21T14:23:19.344Z,101223.76
2019-02-21T14:25:48.644Z,101215.25
2019-02-21T14:28:18.294Z,101224.83
2019-02-21T14:30:47.651Z,101168.22
2019-02-21T14:33:17.608Z,101222.21
2019-02-21T14:35:48.246Z,101230.83
2019-02-21T14:38:27.368Z,101235.24
2019-02-21T14:40:48.929Z,101243.03
2019-02-21T14:43:18.264Z,101248.24
2019-02-21T14:45:47.824Z,101246.57
2019-02-21T14:48:17.162Z,101252.22
2019-02-21T14:50:46.668Z,101258.73
2019-02-21T14:53:16.004Z,101256.15
2019-02-21T14:55:45.369Z,101259.22
2019-02-21T15:01:22.177Z,101279.61
2019-02-21T15:03:51.570Z,101276.94
2019-02-21T15:06:39.949Z,101279.52
2019-02-21T15:09:09.360Z,101279.69
2019-02-21T15:11:38.672Z,101279.61
2019-02-21T15:14:08.068Z,101280.84
2019-02-21T15:16:37.376Z,101293.56
2019-02-21T15:19:06.897Z,101278.97
2019-02-21T15:21:36.315Z,101293.28
2019-02-21T15:24:05.651Z,101297.14
2019-02-21T15:26:35.184Z,101293.72
2019-02-21T15:29:04.556Z,101296.41
2019-02-21T15:31:34.018Z,101319.04
2019-02-21T15:34:03.334Z,101323.38
2019-02-21T15:36:38.153Z,101317.80
2019-02-21T15:39:05.308Z,101324.37
2019-02-21T15:41:34.626Z,101326.08
2019-02-21T15:44:23.050Z,101325.20
2019-02-21T15:46:52.410Z,101332.27
2019-02-21T15:49:21.789Z,101328.78
2019-02-21T15:51:51.225Z,101334.45
2019-02-21T15:54:20.717Z,101342.80
2019-02-21T15:56:50.104Z,101353.70
2019-02-21T15:59:38.339Z,101352.90
2019-02-21T16:02:07.683Z,101358.55
2019-02-21T16:04:37.008Z,101362.99
2019-02-21T16:07:06.397Z,101372.58
2019-02-21T16:09:36.037Z,101375.56
2019-02-21T16:12:05.825Z,101384.64
2019-02-21T16:17:11.343Z,101369.88
2019-02-21T16:19:40.791Z,101374.25
2019-02-21T16:22:10.322Z,101391.67
2019-02-21T16:24:39.643Z,101333.81
2019-02-21T16:27:09.326Z,101384.30
2019-02-21T16:29:38.654Z,101400.41
2019-02-21T16:32:08.225Z,101407.38
2019-02-21T16:34:37.583Z,101410.98
2019-02-21T16:37:25.937Z,101418.08
2019-02-21T16:42:30.090Z,101429.59
2019-02-21T16:44:59.425Z,101434.84
2019-02-21T16:47:28.753Z,101410.04
2019-02-21T16:49:58.429Z,101445.54
2019-02-21T16:52:29.256Z,101459.56
2019-02-21T16:54:58.902Z,101476.14
2019-02-21T16:57:28.291Z,101480.98
2019-02-21T16:59:57.681Z,101484.61
2019-02-21T17:02:38.488Z,101510.52
2019-02-21T17:05:07.857Z,101505.44
2019-02-21T17:07:37.188Z,101516.08
2019-02-21T17:10:07.016Z,101522.00
2019-02-21T17:15:24.861Z,101542.64
2019-02-21T17:20:47.902Z,101557.69
2019-02-21T17:23:22.778Z,101571.91
2019-02-21T17:25:48.549Z,101521.19
2019-02-21T17:28:17.926Z,101595.89
2019-02-21T17:30:47.255Z,101614.23
2019-02-21T17:33:35.791Z,101615.36
2019-02-21T17:36:05.119Z,101623.31
2019-02-21T17:38:53.427Z,101621.59
2019-02-21T17:41:22.846Z,101628.55
2019-02-21T17:43:52.187Z,101645.16
2019-02-21T17:46:21.614Z,101652.56
2019-02-21T17:48:50.954Z,101661.27
2019-02-21T17:54:14.232Z,101687.94
2019-02-21T17:56:43.570Z,101691.09
2019-02-21T17:59:13.223Z,101695.91
2019-02-21T18:01:42.609Z,101700.33
2019-02-21T18:04:12.198Z,101711.28
2019-02-21T18:06:41.521Z,101717.89
2019-02-21T18:09:11.381Z,101722.39
2019-02-21T18:11:40.703Z,101734.67
2019-02-21T18:14:10.070Z,101741.66
2019-02-21T18:16:39.400Z,101701.96
2019-02-21T18:19:08.861Z,101754.39
2019-02-21T18:21:38.190Z,101765.38
2019-02-21T18:24:07.696Z,101767.15
2019-02-21T18:26:37.011Z,101732.14
2019-02-21T18:29:06.540Z,101778.56
2019-02-21T18:31:35.852Z,101777.34
2019-02-21T18:34:05.858Z,101781.32
2019-02-21T18:36:35.214Z,101720.28
2019-02-21T18:39:23.508Z,101748.56
2019-02-21T18:41:53.138Z,101800.14
2019-02-21T18:44:22.457Z,101759.91
2019-02-21T18:46:51.786Z,101801.06
2019-02-21T18:49:21.117Z,101813.23
2019-02-21T18:51:50.797Z,101815.03
2019-02-21T18:54:20.134Z,101765.16
2019-02-21T18:56:49.496Z,101814.21
2019-02-21T18:59:18.892Z,101809.03
2019-02-21T19:01:48.264Z,101820.83
2019-02-21T19:04:17.681Z,101831.28
2019-02-21T19:06:47.002Z,101835.61
2019-02-21T19:09:16.358Z,101840.00
2019-02-21T19:11:46.007Z,101848.73
2019-02-21T19:14:15.352Z,101854.86
2019-02-21T19:16:44.805Z,101859.20
2019-02-21T19:19:14.106Z,101871.39
2019-02-21T19:21:43.637Z,101875.32
2019-02-21T19:24:12.939Z,101876.66
2019-02-21T19:29:30.982Z,101854.14
2019-02-21T19:34:48.695Z,101889.77
2019-02-21T19:37:18.439Z,101915.48
2019-02-21T19:39:47.739Z,101879.45
2019-02-21T19:42:17.291Z,101931.59
2019-02-21T19:44:46.639Z,101962.50
2019-02-21T19:47:16.188Z,101967.27
2019-02-21T19:49:45.455Z,101926.47
2019-02-21T19:52:14.994Z,101985.56
2019-02-21T19:54:44.293Z,101991.67
2019-02-21T19:57:13.775Z,102002.11
2019-02-21T19:59:54.243Z,102013.44
2019-02-21T20:02:23.565Z,102015.18
2019-02-21T20:04:52.862Z,102039.56
2019-02-21T20:07:22.178Z,102041.29
2019-02-21T20:09:51.468Z,102044.78
2019-02-21T20:12:21.035Z,102048.23
2019-02-21T20:15:09.558Z,102058.69
2019-02-21T20:17:38.892Z,102059.99
2019-02-21T20:20:09.477Z,102070.44
2019-02-21T20:22:38.772Z,102086.56
2019-02-21T20:25:08.306Z,102099.61
2019-02-21T20:27:37.577Z,102111.79
2019-02-21T20:30:07.801Z,102120.50
2019-02-21T20:32:37.098Z,102126.56
2019-02-21T20:35:07.209Z,102136.59
2019-02-21T20:37:36.500Z,102139.63
2019-02-21T20:40:06.593Z,102150.95
2019-02-21T20:42:35.893Z,102156.16
2019-02-21T20:45:07.123Z,102148.33
2019-02-21T20:47:36.408Z,102121.77
2019-02-21T20:50:06.179Z,102174.86
2019-02-21T20:52:35.503Z,102180.53
2019-02-21T20:55:05.326Z,102197.50
2019-02-21T20:57:34.615Z,102204.88
2019-02-21T21:00:24.594Z,102206.19
2019-02-21T21:02:53.920Z,102217.08
2019-02-21T21:05:23.226Z,102221.83
2019-02-21T21:07:52.560Z,102231.41
2019-02-21T21:10:21.878Z,102241.43
2019-02-21T21:12:51.201Z,102251.88
2019-02-21T21:15:20.624Z,102258.81
2019-02-21T21:17:49.910Z,102262.30
2019-02-21T21:20:19.392Z,102266.65
2019-02-21T21:22:48.678Z,102269.26
2019-02-21T21:25:18.153Z,102276.66
2019-02-21T21:28:06.437Z,102277.48
2019-02-21T21:30:35.945Z,102285.31
2019-02-21T21:33:05.247Z,102291.41
2019-02-21T21:35:34.823Z,102303.14
2019-02-21T21:38:04.361Z,102313.58
2019-02-21T21:40:33.959Z,102324.89
2019-02-21T21:43:03.262Z,102325.73
2019-02-21T21:45:32.857Z,102340.10
2019-02-21T21:48:02.128Z,102334.44
2019-02-21T21:50:31.527Z,102345.77
2019-02-21T21:53:01.275Z,102352.67
2019-02-21T21:55:30.604Z,102362.22
2019-02-21T21:58:00.136Z,102376.55
2019-02-21T22:00:48.635Z,102381.31
2019-02-21T22:03:17.936Z,102387.41
2019-02-21T22:05:47.205Z,102392.63
2019-02-21T22:08:16.565Z,102403.45
2019-02-21T22:10:45.913Z,102406.48
2019-02-21T22:13:15.220Z,102419.53
2019-02-21T22:15:44.498Z,102426.89
2019-02-21T22:18:13.876Z,102429.05
2019-02-21T22:20:43.197Z,102436.01
2019-02-21T22:23:12.652Z,102447.72
2019-02-21T22:26:00.989Z,102454.24
2019-02-21T22:28:30.270Z,102465.53
2019-02-21T22:30:59.552Z,102479.45
2019-02-21T22:33:28.850Z,102482.88
2019-02-21T22:35:58.167Z,102489.36
2019-02-21T22:38:27.460Z,102504.52
2019-02-21T22:40:56.781Z,102508.00
2019-02-21T22:43:26.070Z,102514.49
2019-02-21T22:45:55.342Z,102520.11
2019-02-21T22:48:24.608Z,102435.62
2019-02-21T22:50:54.089Z,102538.73
2019-02-21T22:53:23.350Z,102511.16
2019-02-21T22:56:11.673Z,102537.43
2019-02-21T22:58:45.047Z,102552.27
2019-02-21T23:05:05.556Z,102566.14
2019-02-21T23:07:56.547Z,102577.00
2019-02-21T23:10:37.036Z,102584.80
2019-02-21T23:13:06.348Z,102591.27
2019-02-21T23:15:35.826Z,102608.19
2019-02-21T23:18:05.131Z,102613.80
2019-02-21T23:20:34.605Z,102618.57
2019-02-21T23:23:04.156Z,102632.48
2019-02-21T23:25:33.507Z,102640.77
2019-02-21T23:28:03.125Z,102657.20
2019-02-21T23:30:32.398Z,102661.59
2019-02-21T23:33:02.074Z,102668.13
2019-02-21T23:35:31.362Z,102665.94
2019-02-21T23:38:01.094Z,102677.22
2019-02-21T23:40:30.366Z,102675.47
2019-02-21T23:42:59.673Z,102684.14
2019-02-21T23:48:17.183Z,102695.77
2019-02-21T23:50:46.468Z,102702.25
2019-02-21T23:53:15.734Z,102713.55
2019-02-21T23:55:45.249Z,102710.03
2019-02-21T23:58:14.523Z,102721.33
